Time;durP1;ratioP1;P1;durP2;ratioP2;P2;SDS_P1;SDS_P2;PMS_P1;PMS_P2;Temp;Humidity;BMP_temperature;BMP_pressure;BME280_temperature;BME280_humidity;BME280_pressure;Samples;Min_cycle;Max_cycle;Signal;HPM_P1;HPM_P2
2023/04/29 00:02:21;;;;;;;6.17;4.80;;;14.90;99.90;;;;;;6033806;23;20412;-82
2023/04/29 00:05:29;;;;;;;4.67;4.23;;;14.90;99.90;;;;;;6038123;23;20985;-82
2023/04/29 00:08:15;;;;;;;6.07;4.37;;;14.90;99.90;;;;;;6075579;23;20413;-81
2023/04/29 00:11:07;;;;;;;5.50;4.60;;;14.90;99.90;;;;;;6072624;23;20926;-83
2023/04/29 00:13:46;;;;;;;6.10;4.90;;;14.90;99.90;;;;;;6075816;23;20416;-81
2023/04/29 00:16:32;;;;;;;5.20;4.70;;;14.90;99.90;;;;;;6075067;23;20417;-83
2023/04/29 00:19:05;;;;;;;6.73;5.10;;;14.90;99.90;;;;;;6074338;23;20516;-82
2023/04/29 00:22:00;;;;;;;5.40;4.43;;;14.90;99.90;;;;;;6073818;23;20431;-82
2023/04/29 00:25:00;;;;;;;5.23;4.50;;;14.80;99.90;;;;;;6073847;23;20503;-82
2023/04/29 00:27:39;;;;;;;6.90;4.80;;;14.80;99.90;;;;;;6075744;23;20423;-82
2023/04/29 00:30:17;;;;;;;7.20;4.60;;;14.80;99.90;;;;;;6074214;23;20508;-82
2023/04/29 00:33:03;;;;;;;6.30;5.70;;;14.80;99.90;;;;;;6075797;23;20436;-82
2023/04/29 00:35:41;;;;;;;5.50;4.63;;;14.80;99.90;;;;;;6073851;23;20417;-81
2023/04/29 00:38:16;;;;;;;7.90;5.10;;;14.80;99.90;;;;;;6076821;23;20436;-83
2023/04/29 00:40:54;;;;;;;6.97;5.57;;;14.80;99.90;;;;;;6075097;23;20417;-83
2023/04/29 00:43:35;;;;;;;6.73;5.00;;;14.80;99.90;;;;;;6074707;23;20409;-82
2023/04/29 00:46:21;;;;;;;7.43;4.90;;;14.70;99.90;;;;;;6074952;23;20479;-82
2023/04/29 00:49:30;;;;;;;6.43;4.40;;;14.60;99.90;;;;;;6076372;23;20504;-83
2023/04/29 00:52:15;;;;;;;7.53;4.67;;;14.60;99.90;;;;;;6072866;23;20437;-82
2023/04/29 00:54:51;;;;;;;6.87;4.73;;;14.60;99.90;;;;;;6074155;23;20507;-82
2023/04/29 00:57:53;;;;;;;7.47;5.10;;;14.60;99.90;;;;;;6074125;23;20420;-82
2023/04/29 01:00:32;;;;;;;4.77;4.07;;;14.60;99.90;;;;;;6073846;23;21004;-82
2023/04/29 01:03:17;;;;;;;7.73;5.60;;;14.50;99.90;;;;;;6097298;23;20983;-82
2023/04/29 01:06:20;;;;;;;5.83;5.23;;;14.60;99.90;;;;;;6074189;23;20448;-82
2023/04/29 01:09:39;;;;;;;5.97;4.87;;;14.50;99.90;;;;;;6063277;23;20503;-83
2023/04/29 01:12:41;;;;;;;6.47;4.53;;;14.50;99.90;;;;;;5993955;23;21239;-83
2023/04/29 01:15:34;;;;;;;6.67;4.87;;;14.40;99.90;;;;;;6073519;23;20499;-83
2023/04/29 01:18:09;;;;;;;6.17;4.63;;;14.40;99.90;;;;;;6071208;23;20501;-83
2023/04/29 01:21:02;;;;;;;7.43;5.03;;;14.40;99.90;;;;;;6061216;23;20395;-83
2023/04/29 01:23:54;;;;;;;6.33;4.53;;;14.40;99.90;;;;;;6073349;23;20776;-82
2023/04/29 01:26:37;;;;;;;8.20;5.73;;;14.30;99.90;;;;;;6075554;23;20448;-83
2023/04/29 01:29:48;;;;;;;9.17;6.30;;;14.30;99.90;;;;;;6075572;23;20492;-83
2023/04/29 01:33:05;;;;;;;9.63;5.93;;;14.30;99.90;;;;;;6078159;23;20417;-81
2023/04/29 01:36:21;;;;;;;9.07;6.50;;;14.30;99.90;;;;;;6080360;23;20500;-81
2023/04/29 01:39:33;;;;;;;8.63;6.07;;;14.20;99.90;;;;;;6078930;23;20436;-82
2023/04/29 01:42:22;;;;;;;10.23;6.23;;;14.10;99.90;;;;;;6079862;23;20434;-82
2023/04/29 01:45:02;;;;;;;8.50;6.23;;;14.20;99.90;;;;;;6076310;23;20481;-83
2023/04/29 01:47:59;;;;;;;9.10;6.17;;;14.20;99.90;;;;;;6074269;23;20427;-81
2023/04/29 01:50:47;;;;;;;10.00;7.70;;;14.10;99.90;;;;;;6083585;23;20400;-81
2023/04/29 01:53:19;;;;;;;8.50;6.33;;;14.20;99.90;;;;;;6094487;23;20471;-82
2023/04/29 01:55:55;;;;;;;14.40;8.27;;;14.20;99.90;;;;;;6115339;23;20459;-82
2023/04/29 01:58:31;;;;;;;11.03;8.20;;;14.20;99.90;;;;;;6094424;23;20424;-82
2023/04/29 02:01:04;;;;;;;10.53;8.10;;;14.10;99.90;;;;;;6093101;23;20491;-81
2023/04/29 02:04:03;;;;;;;12.37;9.33;;;14.20;99.90;;;;;;6088496;23;20468;-82
2023/04/29 02:06:37;;;;;;;14.00;9.70;;;14.20;99.90;;;;;;6094367;23;20457;-82
2023/04/29 02:09:10;;;;;;;15.00;9.77;;;14.20;99.90;;;;;;6099525;23;20441;-82
2023/04/29 02:11:47;;;;;;;13.50;10.20;;;14.20;99.90;;;;;;6118423;23;20424;-81
2023/04/29 02:14:20;;;;;;;18.47;11.53;;;14.10;99.90;;;;;;6117731;23;20426;-81
2023/04/29 02:17:13;;;;;;;14.50;10.37;;;14.00;99.90;;;;;;6109927;23;20884;-82
2023/04/29 02:20:10;;;;;;;13.70;11.30;;;14.10;99.90;;;;;;6102551;23;20752;-82
2023/04/29 02:22:56;;;;;;;13.80;11.47;;;14.10;99.90;;;;;;6100120;23;20401;-83
2023/04/29 02:25:40;;;;;;;17.43;10.40;;;14.00;99.90;;;;;;6103120;23;20436;-81
2023/04/29 02:28:22;;;;;;;15.27;10.67;;;14.00;99.90;;;;;;6099250;23;20444;-83
2023/04/29 02:31:04;;;;;;;15.47;10.67;;;13.90;99.90;;;;;;6099661;23;20428;-83
2023/04/29 02:33:50;;;;;;;13.73;9.73;;;13.90;99.90;;;;;;6105232;23;20412;-83
2023/04/29 02:36:38;;;;;;;18.33;11.70;;;13.90;99.90;;;;;;6104169;23;20420;-81
2023/04/29 02:39:31;;;;;;;13.90;11.03;;;13.90;99.90;;;;;;6103201;23;20444;-81
2023/04/29 02:42:05;;;;;;;16.13;12.20;;;13.90;99.90;;;;;;6104327;23;20416;-82
2023/04/29 02:44:53;;;;;;;20.20;12.93;;;13.90;99.90;;;;;;6104556;23;20393;-82
2023/04/29 02:47:29;;;;;;;20.10;13.23;;;13.80;99.90;;;;;;6103991;23;20420;-82
2023/04/29 02:50:17;;;;;;;19.67;12.53;;;13.90;99.90;;;;;;6082352;23;20456;-82
2023/04/29 02:52:55;;;;;;;18.53;12.80;;;13.90;99.90;;;;;;6107688;23;20408;-83
2023/04/29 02:55:35;;;;;;;20.30;13.17;;;13.90;99.90;;;;;;6098847;23;20405;-83
2023/04/29 02:58:11;;;;;;;17.53;11.60;;;13.80;99.90;;;;;;6103017;23;20989;-82
2023/04/29 03:00:55;;;;;;;19.63;13.40;;;13.70;99.90;;;;;;6091837;23;20397;-83
2023/04/29 03:03:36;;;;;;;18.80;13.17;;;13.70;99.90;;;;;;6101547;23;20487;-81
2023/04/29 03:06:26;;;;;;;16.23;10.93;;;13.60;99.90;;;;;;6103580;23;21001;-83
2023/04/29 03:09:12;;;;;;;17.50;12.90;;;13.60;99.90;;;;;;6080673;23;20441;-82
2023/04/29 03:11:48;;;;;;;19.87;12.50;;;13.60;99.90;;;;;;6120176;23;20416;-82
2023/04/29 03:14:29;;;;;;;19.03;12.70;;;13.70;99.90;;;;;;6120344;23;20392;-81
2023/04/29 03:17:03;;;;;;;20.13;13.40;;;13.70;99.90;;;;;;6120840;23;20413;-82
2023/04/29 03:19:42;;;;;;;24.20;13.87;;;13.70;99.90;;;;;;6121377;23;20424;-82
2023/04/29 03:22:10;;;;;;;19.40;13.60;;;13.70;99.90;;;;;;6122854;23;20409;-82
2023/04/29 03:24:40;;;;;;;20.93;12.33;;;13.70;99.90;;;;;;6123039;23;20444;-81
2023/04/29 03:27:26;;;;;;;17.90;13.50;;;13.60;99.90;;;;;;6121535;23;20472;-82
2023/04/29 03:30:04;;;;;;;20.67;14.20;;;13.60;99.90;;;;;;6120770;23;20504;-82
2023/04/29 03:32:36;;;;;;;22.43;15.37;;;13.60;99.90;;;;;;6117640;23;20487;-82
2023/04/29 03:35:31;;;;;;;22.77;14.30;;;13.60;99.90;;;;;;6101429;23;20732;-82
2023/04/29 03:38:31;;;;;;;22.20;15.33;;;13.50;99.90;;;;;;6100509;23;20459;-83
2023/04/29 03:41:06;;;;;;;21.70;14.90;;;13.50;99.90;;;;;;6103134;23;20427;-82
2023/04/29 03:43:43;;;;;;;23.53;14.23;;;13.50;99.90;;;;;;6103146;23;20409;-83
2023/04/29 03:46:17;;;;;;;24.83;13.63;;;13.30;99.90;;;;;;6117120;23;20460;-82
2023/04/29 03:48:54;;;;;;;25.40;14.23;;;13.40;99.90;;;;;;6122022;23;20429;-82
2023/04/29 03:54:18;;;;;;;19.40;13.70;;;13.20;99.90;;;;;;6145978;23;20490;-81
2023/04/29 03:57:01;;;;;;;25.23;14.80;;;13.20;99.90;;;;;;6152968;23;20376;-84
2023/04/29 03:59:53;;;;;;;23.53;14.00;;;13.10;99.90;;;;;;6152570;23;20446;-81
2023/04/29 04:02:25;;;;;;;16.27;11.90;;;13.20;99.90;;;;;;6132863;23;20539;-82
2023/04/29 04:05:40;;;;;;;20.90;14.33;;;13.20;99.90;;;;;;6115727;23;20439;-82
2023/04/29 04:14:25;;;;;;;26.13;14.00;;;13.30;99.90;;;;;;6138717;22;20435;-80
2023/04/29 04:17:22;;;;;;;23.73;11.93;;;13.10;99.90;;;;;;6157047;23;20469;-81
2023/04/29 04:19:55;;;;;;;22.77;11.93;;;13.10;99.90;;;;;;6132065;23;20950;-80
2023/04/29 04:25:52;;;;;;;20.80;12.63;;;13.20;99.90;;;;;;6110911;22;20458;-82
2023/04/29 04:28:48;;;;;;;21.10;11.63;;;13.20;99.90;;;;;;6137739;23;20441;-83
2023/04/29 04:31:29;;;;;;;16.67;11.20;;;13.10;99.90;;;;;;6131445;23;20454;-81
2023/04/29 04:36:51;;;;;;;23.50;11.87;;;13.10;99.90;;;;;;6150479;22;20447;-82
2023/04/29 04:39:27;;;;;;;17.80;11.17;;;13.20;99.90;;;;;;6128336;23;21043;-84
2023/04/29 04:43:06;;;;;;;17.40;10.60;;;13.00;99.90;;;;;;6107732;23;20422;-81
2023/04/29 04:45:51;;;;;;;23.63;11.43;;;12.90;99.90;;;;;;6059260;23;20521;-81
2023/04/29 04:48:26;;;;;;;19.10;11.50;;;12.90;99.90;;;;;;6098235;23;20499;-81
2023/04/29 04:50:56;;;;;;;17.93;11.10;;;13.00;99.90;;;;;;6096922;23;20432;-82
2023/04/29 04:53:39;;;;;;;15.97;10.10;;;13.00;99.90;;;;;;6117528;23;20396;-81
2023/04/29 04:56:29;;;;;;;19.03;11.20;;;12.90;99.90;;;;;;6105559;23;20417;-82
2023/04/29 04:59:10;;;;;;;14.70;9.73;;;13.00;99.90;;;;;;6099727;23;20503;-81
2023/04/29 05:01:46;;;;;;;19.90;11.43;;;12.80;99.90;;;;;;6095917;23;20448;-82
2023/04/29 05:04:33;;;;;;;18.23;10.87;;;12.90;99.90;;;;;;6098271;23;20492;-81
2023/04/29 05:07:08;;;;;;;15.07;11.30;;;12.80;99.90;;;;;;6097222;23;20891;-84
2023/04/29 05:09:48;;;;;;;16.73;10.40;;;12.80;99.90;;;;;;6098543;23;20444;-82
2023/04/29 05:12:30;;;;;;;16.30;9.30;;;12.90;99.90;;;;;;6098830;23;20420;-83
2023/04/29 05:15:17;;;;;;;14.53;9.33;;;12.80;99.90;;;;;;6099505;23;20479;-82
2023/04/29 05:18:09;;;;;;;14.97;9.57;;;12.80;99.90;;;;;;6096580;23;20484;-83
2023/04/29 05:20:46;;;;;;;11.03;8.50;;;12.70;99.90;;;;;;6098288;23;20416;-81
2023/04/29 05:23:20;;;;;;;15.40;8.20;;;12.70;99.90;;;;;;6100816;23;20488;-82
2023/04/29 05:26:00;;;;;;;14.80;9.00;;;12.70;99.90;;;;;;6078198;23;20480;-81
2023/04/29 05:28:47;;;;;;;16.17;8.67;;;12.70;99.90;;;;;;6084526;23;20452;-82
2023/04/29 05:31:19;;;;;;;14.77;8.27;;;12.70;99.90;;;;;;6099595;23;20495;-82
2023/04/29 05:33:51;;;;;;;13.83;7.63;;;12.60;99.90;;;;;;6104750;23;20507;-81
2023/04/29 05:36:36;;;;;;;14.27;8.77;;;12.70;99.90;;;;;;6099445;23;20455;-83
2023/04/29 05:39:09;;;;;;;13.20;7.10;;;12.60;99.90;;;;;;6098404;23;20440;-82
2023/04/29 05:41:50;;;;;;;13.10;8.37;;;12.60;99.90;;;;;;6098725;23;20565;-82
2023/04/29 05:44:29;;;;;;;12.87;8.60;;;12.60;99.90;;;;;;6097779;23;20444;-81
2023/04/29 05:47:22;;;;;;;12.03;7.07;;;12.70;99.90;;;;;;6122553;23;20446;-82
2023/04/29 05:49:49;;;;;;;14.97;8.40;;;12.70;99.90;;;;;;6108059;23;20865;-82
2023/04/29 05:52:17;;;;;;;11.53;7.63;;;12.60;99.90;;;;;;6099034;23;20780;-82
2023/04/29 05:54:44;;;;;;;11.40;7.80;;;12.60;99.90;;;;;;6099429;23;20446;-83
2023/04/29 05:57:11;;;;;;;10.43;7.57;;;12.50;99.90;;;;;;6099983;23;20922;-82
2023/04/29 05:59:38;;;;;;;13.23;7.90;;;12.60;99.90;;;;;;6098187;23;20436;-82
2023/04/29 06:02:05;;;;;;;13.70;7.77;;;12.60;99.90;;;;;;6100262;23;20427;-83
2023/04/29 06:04:32;;;;;;;9.80;6.70;;;12.60;99.90;;;;;;6075628;23;20424;-82
2023/04/29 06:07:00;;;;;;;12.43;7.50;;;12.60;99.90;;;;;;6099368;23;20847;-82
2023/04/29 06:09:27;;;;;;;9.70;7.00;;;12.60;99.90;;;;;;6098950;23;20495;-81
2023/04/29 06:11:55;;;;;;;9.33;6.77;;;12.70;99.90;;;;;;6099400;23;20409;-81
2023/04/29 06:14:22;;;;;;;8.37;7.00;;;12.70;99.90;;;;;;6099235;23;20417;-82
2023/04/29 06:16:49;;;;;;;9.17;6.60;;;12.70;99.90;;;;;;6099198;23;20822;-83
2023/04/29 06:19:16;;;;;;;11.07;7.97;;;12.70;99.90;;;;;;6099953;23;21170;-80
2023/04/29 06:21:43;;;;;;;11.57;6.40;;;12.70;99.90;;;;;;6098853;23;20435;-83
2023/04/29 06:24:10;;;;;;;7.80;6.10;;;12.60;99.90;;;;;;6100289;23;20428;-83
2023/04/29 06:26:37;;;;;;;10.03;6.70;;;12.50;99.90;;;;;;6080875;23;20475;-83
2023/04/29 06:29:05;;;;;;;8.50;5.10;;;12.60;99.90;;;;;;6100194;23;21128;-82
2023/04/29 06:31:32;;;;;;;7.67;5.50;;;12.60;99.90;;;;;;6099498;23;20431;-83
2023/04/29 06:33:59;;;;;;;10.00;7.10;;;12.70;99.90;;;;;;6098254;23;20483;-82
2023/04/29 06:36:27;;;;;;;9.20;6.13;;;12.70;99.90;;;;;;6098299;23;20427;-80
2023/04/29 06:38:54;;;;;;;14.83;8.60;;;12.70;99.90;;;;;;6098089;23;20491;-81
2023/04/29 06:41:22;;;;;;;9.30;5.97;;;12.60;99.90;;;;;;6098515;23;20417;-83
2023/04/29 06:43:49;;;;;;;10.37;6.70;;;12.60;99.90;;;;;;6098404;23;20417;-82
2023/04/29 06:46:17;;;;;;;9.30;6.43;;;12.70;99.90;;;;;;6098110;23;20451;-82
2023/04/29 06:48:44;;;;;;;10.13;7.27;;;12.70;99.90;;;;;;6102597;23;20460;-82
2023/04/29 06:51:11;;;;;;;8.50;6.13;;;12.70;99.90;;;;;;6101740;23;20458;-83
2023/04/29 06:53:38;;;;;;;9.50;6.77;;;12.70;99.90;;;;;;6123668;23;20416;-82
2023/04/29 06:56:06;;;;;;;9.53;6.73;;;12.60;99.90;;;;;;6123827;23;20416;-82
2023/04/29 06:58:33;;;;;;;11.33;6.30;;;12.60;99.90;;;;;;6123927;23;20459;-81
2023/04/29 07:01:03;;;;;;;7.53;6.10;;;12.70;99.90;;;;;;6099346;23;20448;-82
2023/04/29 07:03:32;;;;;;;10.70;6.93;;;12.70;99.90;;;;;;6122739;23;20417;-82
2023/04/29 07:06:00;;;;;;;8.53;6.90;;;12.80;99.90;;;;;;6127026;23;20503;-83
2023/04/29 07:08:30;;;;;;;10.03;7.37;;;12.70;99.90;;;;;;6123280;23;20425;-84
2023/04/29 07:10:57;;;;;;;9.97;7.00;;;12.80;99.90;;;;;;6124037;23;20420;-82
2023/04/29 07:13:24;;;;;;;6.63;5.93;;;12.80;99.90;;;;;;6124534;23;20484;-82
2023/04/29 07:16:20;;;;;;;9.53;7.70;;;12.90;99.90;;;;;;6120759;23;20468;-82
2023/04/29 07:19:11;;;;;;;8.37;7.13;;;13.00;99.90;;;;;;6099980;23;20443;-82
2023/04/29 07:22:00;;;;;;;10.33;7.20;;;13.00;99.90;;;;;;6122631;23;20416;-84
2023/04/29 07:24:49;;;;;;;8.90;6.90;;;13.10;99.90;;;;;;6100646;23;20412;-83
2023/04/29 07:27:36;;;;;;;11.30;7.27;;;13.20;99.90;;;;;;6123398;23;21040;-84
2023/04/29 07:30:25;;;;;;;11.27;7.70;;;13.10;99.90;;;;;;6126916;23;20432;-83
2023/04/29 07:33:05;;;;;;;10.87;7.00;;;13.00;99.90;;;;;;6145872;23;20437;-82
2023/04/29 07:35:43;;;;;;;11.90;7.00;;;13.10;99.90;;;;;;6142893;23;20460;-82
2023/04/29 07:38:35;;;;;;;7.87;6.10;;;13.00;99.90;;;;;;6131144;23;20499;-80
2023/04/29 07:42:14;;;;;;;9.87;6.80;;;13.20;99.90;;;;;;6103980;23;20428;-83
2023/04/29 07:45:00;;;;;;;9.30;7.33;;;13.10;99.90;;;;;;6105397;23;20441;-82
2023/04/29 07:47:45;;;;;;;8.00;6.23;;;13.10;99.90;;;;;;6103634;23;20523;-82
2023/04/29 07:53:48;;;;;;;9.00;6.13;;;13.10;99.90;;;;;;6099691;23;20461;-81
2023/04/29 07:57:00;;;;;;;11.00;6.87;;;13.10;99.90;;;;;;6110059;23;20431;-81
2023/04/29 08:00:07;;;;;;;9.87;6.87;;;13.20;99.90;;;;;;6109156;23;20425;-80
2023/04/29 08:02:52;;;;;;;9.73;6.47;;;13.10;99.90;;;;;;6113377;23;20427;-81
2023/04/29 08:05:47;;;;;;;10.60;6.60;;;13.10;99.90;;;;;;6110585;23;20404;-81
2023/04/29 08:08:38;;;;;;;8.53;6.67;;;13.00;99.90;;;;;;6092224;23;20440;-81
2023/04/29 08:11:21;;;;;;;9.97;7.10;;;13.00;99.90;;;;;;6114557;23;20416;-84
2023/04/29 08:14:10;;;;;;;9.47;6.70;;;13.10;99.90;;;;;;6116535;23;20393;-82
2023/04/29 08:16:48;;;;;;;7.90;6.43;;;13.20;99.90;;;;;;6099840;23;20444;-82
2023/04/29 08:19:44;;;;;;;8.87;6.87;;;13.20;99.90;;;;;;6114671;23;20401;-82
2023/04/29 08:22:25;;;;;;;8.73;6.23;;;13.20;99.90;;;;;;6122257;23;20396;-82
2023/04/29 08:28:21;;;;;;;7.60;5.83;;;13.20;99.90;;;;;;6112170;23;20440;-80
2023/04/29 08:31:09;;;;;;;8.53;6.50;;;13.60;99.90;;;;;;6120832;23;20401;-82
2023/04/29 08:34:01;;;;;;;7.50;5.60;;;13.40;99.90;;;;;;6121868;23;20401;-83
2023/04/29 08:36:59;;;;;;;8.90;6.10;;;13.30;99.90;;;;;;6121448;23;20444;-81
2023/04/29 08:39:42;;;;;;;9.13;6.87;;;13.30;99.90;;;;;;6119954;23;20429;-83
2023/04/29 08:42:36;;;;;;;8.30;6.83;;;13.30;99.90;;;;;;6098048;23;20385;-82
2023/04/29 08:45:27;;;;;;;9.30;5.70;;;13.30;99.90;;;;;;6102363;23;20424;-81
2023/04/29 08:48:04;;;;;;;10.43;7.13;;;13.50;99.90;;;;;;6098149;23;20484;-81
2023/04/29 08:50:41;;;;;;;7.30;5.70;;;13.70;99.90;;;;;;6100737;23;20404;-82
2023/04/29 08:57:00;;;;;;;7.63;5.10;;;13.50;99.90;;;;;;6090225;23;20419;-82
2023/04/29 08:59:44;;;;;;;7.10;5.03;;;13.60;99.90;;;;;;6097432;23;20809;-82
2023/04/29 09:02:40;;;;;;;6.30;5.20;;;13.60;99.90;;;;;;6093098;23;20405;-81
2023/04/29 09:05:22;;;;;;;9.43;6.40;;;13.70;99.80;;;;;;6100165;23;20519;-83
2023/04/29 09:08:33;;;;;;;;;;;;;;;;;;;;;
2023/04/29 09:11:55;;;;;;;7.77;6.20;;;13.80;99.20;;;;;;6102925;23;20408;-83
2023/04/29 09:15:07;;;;;;;7.87;5.60;;;13.90;98.80;;;;;;6091181;23;20413;-83
2023/04/29 09:17:57;;;;;;;8.03;5.37;;;13.90;98.40;;;;;;6086639;23;20397;-81
2023/04/29 09:20:59;;;;;;;8.67;5.73;;;13.80;98.20;;;;;;6077942;23;20404;-82
2023/04/29 09:23:52;;;;;;;9.60;5.97;;;13.80;98.40;;;;;;6088777;23;20424;-82
2023/04/29 09:26:51;;;;;;;7.53;4.93;;;13.80;98.20;;;;;;6078300;23;20388;-83
2023/04/29 09:33:24;;;;;;;13.57;7.73;;;14.00;98.70;;;;;;6041583;23;20919;-82
2023/04/29 09:36:07;;;;;;;8.93;7.00;;;14.10;97.90;;;;;;6041799;23;20429;-84
2023/04/29 09:39:14;;;;;;;9.10;7.30;;;14.30;97.80;;;;;;6040092;23;20446;-83
2023/04/29 09:42:18;;;;;;;9.63;7.13;;;14.00;97.50;;;;;;6040825;23;20390;-82
2023/04/29 09:45:11;;;;;;;7.70;5.60;;;14.20;98.10;;;;;;6041531;23;20473;-81
2023/04/29 09:48:04;;;;;;;7.70;6.30;;;14.10;97.80;;;;;;6074544;23;21138;-82
2023/04/29 09:51:16;;;;;;;;;;;;;;;;;;;;;
2023/04/29 09:54:18;;;;;;;8.77;7.17;;;14.20;97.80;;;;;;5966913;23;20420;-81
2023/04/29 10:01:23;;;;;;;;;;;;;;;;;;;;;
2023/04/29 10:08:10;;;;;;;9.77;7.20;;;13.80;98.60;;;;;;6099363;23;20510;-83
2023/04/29 10:11:22;;;;;;;10.13;7.57;;;14.10;98.50;;;;;;6099505;23;20417;-83
2023/04/29 10:14:38;;;;;;;12.13;8.60;;;14.20;98.10;;;;;;6099730;23;20448;-84
2023/04/29 10:21:37;;;;;;;12.90;8.60;;;14.20;97.80;;;;;;6114159;23;20415;-84
2023/04/29 10:24:28;;;;;;;11.83;8.97;;;14.20;98.10;;;;;;6100485;23;20412;-82
2023/04/29 10:27:29;;;;;;;12.57;8.70;;;14.00;97.90;;;;;;6021692;23;20459;-82
2023/04/29 10:30:47;;;;;;;12.57;9.17;;;13.90;98.20;;;;;;6080463;23;20421;-83
2023/04/29 10:33:54;;;;;;;12.90;10.20;;;13.90;98.50;;;;;;6100761;23;20416;-82
2023/04/29 10:40:38;;;;;;;9.20;7.50;;;13.70;99.10;;;;;;6007090;23;20607;-81
2023/04/29 10:43:35;;;;;;;7.67;6.87;;;13.80;99.50;;;;;;5948013;23;20428;-82
2023/04/29 10:46:38;;;;;;;10.60;7.27;;;13.70;99.50;;;;;;6012757;23;20419;-83
2023/04/29 10:50:41;;;;;;;10.33;8.70;;;13.80;99.50;;;;;;6033504;23;20450;-83
2023/04/29 10:54:40;;;;;;;11.63;8.80;;;14.20;99.10;;;;;;5987292;23;20406;-84
2023/04/29 10:57:56;;;;;;;11.53;8.17;;;13.90;99.70;;;;;;5913949;23;20418;-81
2023/04/29 11:01:29;;;;;;;;;;;;;;;;;;;;;
2023/04/29 11:04:47;;;;;;;15.53;10.67;;;13.80;99.30;;;;;;6043738;23;20413;-83
2023/04/29 11:08:25;;;;;;;20.93;14.07;;;13.60;99.90;;;;;;6039741;23;20453;-83
2023/04/29 11:11:46;;;;;;;22.50;15.30;;;13.60;99.90;;;;;;6018100;23;20477;-83
2023/04/29 11:15:01;;;;;;;;;;;;;;;;;;;;;
2023/04/29 11:18:04;;;;;;;23.97;16.77;;;13.60;99.90;;;;;;6031814;23;20388;-83
2023/04/29 11:21:14;;;;;;;23.93;15.60;;;13.60;99.90;;;;;;6035874;23;20408;-80
2023/04/29 11:24:08;;;;;;;18.93;13.70;;;13.60;99.90;;;;;;6075423;23;20404;-83
2023/04/29 11:30:59;;;;;;;20.03;13.00;;;13.50;99.90;;;;;;6098372;23;20724;-80
2023/04/29 11:34:06;;;;;;;19.57;12.90;;;13.60;99.90;;;;;;6102378;23;20424;-83
2023/04/29 11:37:14;;;;;;;19.10;14.40;;;13.50;99.90;;;;;;6104383;23;20372;-83
2023/04/29 11:40:39;;;;;;;22.23;14.30;;;13.60;99.90;;;;;;6104356;23;20403;-83
2023/04/29 11:47:31;;;;;;;22.27;15.00;;;13.70;99.90;;;;;;6090203;23;20960;-83
2023/04/29 11:50:32;;;;;;;25.07;16.53;;;13.90;99.90;;;;;;6106335;23;20439;-83
2023/04/29 11:53:41;;;;;;;32.60;19.37;;;13.90;99.90;;;;;;6100684;23;20392;-83
2023/04/29 11:56:42;;;;;;;31.33;21.60;;;13.80;99.90;;;;;;6101519;23;21227;-80
2023/04/29 11:59:26;;;;;;;33.13;20.80;;;14.00;99.90;;;;;;6073505;23;20475;-81
2023/04/29 12:02:16;;;;;;;28.03;18.73;;;13.80;99.90;;;;;;6095106;23;20389;-80
2023/04/29 12:05:15;;;;;;;37.27;23.87;;;14.30;99.90;;;;;;6103592;23;20436;-80
2023/04/29 12:08:32;;;;;;;33.57;21.03;;;14.40;99.40;;;;;;6085691;23;20473;-83
2023/04/29 12:11:36;;;;;;;35.77;22.37;;;14.30;99.00;;;;;;6100232;23;20412;-82
2023/04/29 12:14:45;;;;;;;30.40;20.77;;;14.00;99.50;;;;;;6080028;23;20431;-82
2023/04/29 12:17:24;;;;;;;29.07;20.37;;;14.00;99.90;;;;;;6100243;23;21044;-83
2023/04/29 12:19:59;;;;;;;31.90;20.60;;;13.80;99.90;;;;;;6102105;23;20524;-82
2023/04/29 12:22:51;;;;;;;29.00;19.17;;;13.70;99.90;;;;;;6104052;23;20427;-82
2023/04/29 12:25:37;;;;;;;25.70;18.40;;;13.70;99.90;;;;;;6104055;23;20408;-83
2023/04/29 12:28:26;;;;;;;31.70;20.60;;;13.70;99.90;;;;;;6078122;23;20444;-82
2023/04/29 12:31:25;;;;;;;27.83;18.87;;;13.60;99.90;;;;;;6079408;23;20458;-83
2023/04/29 12:34:20;;;;;;;24.97;17.83;;;13.80;99.90;;;;;;6117510;23;20448;-81
2023/04/29 12:37:48;;;;;;;28.23;17.50;;;14.30;99.90;;;;;;6121919;23;20400;-81
2023/04/29 12:40:53;;;;;;;22.97;16.73;;;14.10;99.50;;;;;;6012550;23;20459;-82
2023/04/29 12:43:45;;;;;;;26.00;16.90;;;14.30;99.60;;;;;;6025188;23;20423;-81
2023/04/29 12:46:37;;;;;;;21.40;14.50;;;14.30;99.50;;;;;;6114499;23;20463;-81
2023/04/29 12:53:13;;;;;;;22.07;11.57;;;14.60;99.30;;;;;;6099604;23;20760;-82
2023/04/29 12:56:27;;;;;;;16.43;11.50;;;14.80;98.60;;;;;;6098069;23;20400;-82
2023/04/29 12:59:42;;;;;;;16.87;11.80;;;14.50;98.50;;;;;;6098855;23;20407;-81
2023/04/29 13:03:14;;;;;;;14.87;11.43;;;14.70;98.60;;;;;;6098698;23;20414;-82
2023/04/29 13:09:40;;;;;;;14.07;11.00;;;14.90;98.60;;;;;;6080292;23;20412;-82
2023/04/29 13:12:30;;;;;;;15.30;12.13;;;15.20;98.40;;;;;;6099531;23;20411;-83
2023/04/29 13:15:27;;;;;;;14.93;10.53;;;15.70;97.60;;;;;;6098708;23;20400;-83
2023/04/29 13:18:56;;;;;;;18.00;10.03;;;15.60;96.40;;;;;;6070004;23;20401;-82
2023/04/29 13:22:39;;;;;;;14.80;11.83;;;15.50;96.00;;;;;;6078295;23;20381;-82
2023/04/29 13:25:45;;;;;;;16.00;12.10;;;16.20;96.00;;;;;;6078066;23;20373;-83
2023/04/29 13:29:18;;;;;;;13.97;11.10;;;16.50;94.70;;;;;;6067947;23;20441;-83
2023/04/29 13:32:30;;;;;;;18.07;11.93;;;16.50;93.70;;;;;;6030143;23;20422;-81
2023/04/29 13:35:34;;;;;;;16.93;11.93;;;16.30;93.60;;;;;;6067687;23;20421;-82
2023/04/29 13:38:45;;;;;;;16.97;11.57;;;16.20;94.10;;;;;;6028101;23;20425;-83
2023/04/29 13:41:45;;;;;;;15.27;11.03;;;16.10;94.00;;;;;;6048405;23;20472;-82
2023/04/29 13:44:49;;;;;;;16.23;12.53;;;16.20;94.20;;;;;;6067627;23;20405;-82
2023/04/29 13:55:22;;;;;;;12.90;10.10;;;16.40;93.40;;;;;;6040590;23;20644;-82
2023/04/29 14:01:58;;;;;;;15.90;11.10;;;16.20;93.10;;;;;;6035346;23;20465;-83
2023/04/29 14:05:11;;;;;;;;;;;;;;;;;;;;;
2023/04/29 14:12:01;;;;;;;15.00;10.90;;;16.10;93.20;;;;;;5933554;24;20903;-82
2023/04/29 14:18:29;;;;;;;17.77;12.70;;;16.50;92.70;;;;;;5980744;24;20399;-83
2023/04/29 14:21:16;;;;;;;14.47;10.93;;;16.10;93.00;;;;;;5983099;24;20408;-83
2023/04/29 14:27:52;;;;;;;12.10;10.00;;;16.40;92.90;;;;;;5980647;24;20486;-82
2023/04/29 14:31:16;;;;;;;12.07;9.97;;;16.50;93.30;;;;;;5923708;24;20824;-83
2023/04/29 14:34:12;;;;;;;10.97;9.67;;;16.40;92.80;;;;;;6025941;23;20530;-82
2023/04/29 14:36:50;;;;;;;14.40;10.80;;;16.20;93.00;;;;;;6123919;23;20690;-83
2023/04/29 14:39:25;;;;;;;10.97;9.03;;;16.00;93.10;;;;;;6127814;23;20451;-81
2023/04/29 14:41:56;;;;;;;13.37;10.67;;;16.10;93.30;;;;;;6128357;23;20498;-82
2023/04/29 14:44:57;;;;;;;17.67;10.33;;;16.60;92.50;;;;;;6131609;23;20392;-82
2023/04/29 14:47:37;;;;;;;11.70;10.40;;;16.50;91.80;;;;;;6108233;23;20415;-82
2023/04/29 14:54:34;;;;;;;14.23;10.67;;;16.20;92.20;;;;;;6123206;23;20415;-82
2023/04/29 14:57:48;;;;;;;13.33;9.73;;;16.40;91.90;;;;;;6129928;23;20420;-83
2023/04/29 15:00:32;;;;;;;13.90;10.10;;;16.20;92.00;;;;;;6128289;23;20396;-83
2023/04/29 15:03:13;;;;;;;11.90;8.77;;;16.10;92.60;;;;;;6131133;23;20419;-82
2023/04/29 15:06:00;;;;;;;14.00;10.30;;;16.00;92.60;;;;;;6130045;23;20446;-82
2023/04/29 15:08:53;;;;;;;12.60;10.87;;;16.10;92.50;;;;;;6125363;23;20447;-82
2023/04/29 15:11:37;;;;;;;13.50;9.97;;;16.20;92.40;;;;;;6100723;23;20417;-84
2023/04/29 15:14:27;;;;;;;;;;;;;;;;;;;;;
2023/04/29 15:17:24;;;;;;;;;;;;;;;;;;;;;
2023/04/29 15:20:23;;;;;;;12.87;10.50;;;16.60;91.60;;;;;;6115834;23;20431;-83
2023/04/29 15:23:38;;;;;;;;;;;;;;;;;;;;;
2023/04/29 15:26:20;;;;;;;13.30;10.47;;;16.00;92.60;;;;;;6146642;23;20432;-82
2023/04/29 15:29:02;;;;;;;12.13;9.77;;;15.90;92.80;;;;;;6126597;23;20532;-82
2023/04/29 15:31:54;;;;;;;12.73;9.53;;;15.70;92.70;;;;;;6147660;23;20443;-84
2023/04/29 15:34:38;;;;;;;11.73;10.50;;;15.70;92.80;;;;;;6145990;23;20427;-82
2023/04/29 15:37:20;;;;;;;13.60;10.87;;;15.80;92.90;;;;;;6125502;23;20476;-83
2023/04/29 15:40:16;;;;;;;14.23;9.93;;;15.80;92.80;;;;;;6120477;23;20436;-82
2023/04/29 15:43:14;;;;;;;11.70;9.43;;;16.00;92.70;;;;;;6129328;23;20392;-81
2023/04/29 15:45:50;;;;;;;12.33;10.00;;;15.90;92.30;;;;;;6149593;23;20511;-81
2023/04/29 15:48:28;;;;;;;15.20;10.13;;;16.20;92.30;;;;;;6148922;23;20419;-81
2023/04/29 15:54:10;;;;;;;13.03;10.60;;;16.60;90.60;;;;;;6119115;23;20434;-83
2023/04/29 15:56:54;;;;;;;14.63;10.07;;;16.80;90.60;;;;;;6108399;23;20755;-83
2023/04/29 15:59:29;;;;;;;12.70;10.67;;;16.80;90.20;;;;;;6107767;23;20437;-83
2023/04/29 16:06:13;;;;;;;12.30;9.87;;;16.20;91.20;;;;;;5897034;24;20407;-84
2023/04/29 16:08:53;;;;;;;11.70;10.33;;;16.30;91.20;;;;;;6011021;23;20530;-84
2023/04/29 16:11:41;;;;;;;14.63;11.30;;;16.10;91.40;;;;;;5991803;23;20411;-85
2023/04/29 16:15:25;;;;;;;13.60;10.80;;;16.30;91.30;;;;;;6012829;23;20677;-80